Time;durP1;ratioP1;P1;durP2;ratioP2;P2;SDS_P1;SDS_P2;PMS_P1;PMS_P2;Temp;Humidity;BMP_temperature;BMP_pressure;BME280_temperature;BME280_humidity;BME280_pressure;Samples;Min_cycle;Max_cycle;Signal;HPM_P1;HPM_P2
2022/06/19 00:01:37;;;;;;;6.25;5.32;;;;;;;;;;6096375;23;20014;-80
2022/06/19 00:04:04;;;;;;;7.68;5.38;;;;;;;;;;6096102;23;20330;-79
2022/06/19 00:06:30;;;;;;;7.65;6.45;;;;;;;;;;6096341;23;20334;-79
2022/06/19 00:08:56;;;;;;;7.35;6.32;;;;;;;;;;6095762;23;20061;-80
2022/06/19 00:11:23;;;;;;;5.45;4.57;;;;;;;;;;6096344;23;20510;-79
2022/06/19 00:13:49;;;;;;;6.38;4.90;;;;;;;;;;6096167;23;20033;-78
2022/06/19 00:16:15;;;;;;;7.55;5.03;;;;;;;;;;6095925;23;20019;-80
2022/06/19 00:18:42;;;;;;;5.80;5.22;;;;;;;;;;6096242;23;20478;-80
2022/06/19 00:21:08;;;;;;;5.60;5.10;;;;;;;;;;6095975;23;20117;-79
2022/06/19 00:23:35;;;;;;;5.40;4.90;;;;;;;;;;6096301;23;20007;-79
2022/06/19 00:26:02;;;;;;;5.57;4.88;;;;;;;;;;6095880;23;20089;-79
2022/06/19 00:28:28;;;;;;;5.20;4.70;;;;;;;;;;6096232;23;20026;-79
2022/06/19 00:30:55;;;;;;;5.43;4.93;;;;;;;;;;6096009;23;20042;-80
2022/06/19 00:33:21;;;;;;;4.72;4.32;;;;;;;;;;6096136;23;20081;-79
2022/06/19 00:35:47;;;;;;;4.70;4.28;;;;;;;;;;6096155;23;20006;-80
2022/06/19 00:38:13;;;;;;;5.90;4.55;;;;;;;;;;6070713;23;20382;-79
2022/06/19 00:40:40;;;;;;;5.25;4.75;;;;;;;;;;6096202;23;20003;-79
2022/06/19 00:43:06;;;;;;;4.88;4.38;;;;;;;;;;6095941;23;20072;-79
2022/06/19 00:45:40;;;;;;;5.68;4.65;;;;;;;;;;6096261;23;20016;-80
2022/06/19 00:48:13;;;;;;;5.47;4.30;;;;;;;;;;6095975;23;20007;-79
2022/06/19 00:50:40;;;;;;;5.05;4.22;;;;;;;;;;6096124;23;20217;-79
2022/06/19 00:53:09;;;;;;;4.38;3.97;;;;;;;;;;6095866;23;20514;-80
2022/06/19 00:55:38;;;;;;;5.78;4.65;;;;;;;;;;6096051;23;20003;-80
2022/06/19 00:58:07;;;;;;;4.70;4.15;;;;;;;;;;6095977;23;20057;-78
2022/06/19 01:00:33;;;;;;;4.85;4.45;;;;;;;;;;6096109;23;20026;-80
2022/06/19 01:03:02;;;;;;;4.65;4.20;;;;;;;;;;6070194;23;20058;-80
2022/06/19 01:05:30;;;;;;;5.63;4.95;;;;;;;;;;6070655;23;20003;-80
2022/06/19 01:08:00;;;;;;;4.57;4.18;;;;;;;;;;6095813;23;20326;-79
2022/06/19 01:10:27;;;;;;;5.20;4.70;;;;;;;;;;6096108;23;20054;-79
2022/06/19 01:12:53;;;;;;;4.45;4.05;;;;;;;;;;6095670;23;20006;-79
2022/06/19 01:15:22;;;;;;;5.15;3.78;;;;;;;;;;6096591;23;20129;-80
2022/06/19 01:17:50;;;;;;;4.60;4.20;;;;;;;;;;6095693;23;20018;-80
2022/06/19 01:20:16;;;;;;;7.20;6.57;;;;;;;;;;6096300;23;20165;-79
2022/06/19 01:22:48;;;;;;;20.80;18.60;;;;;;;;;;6097641;23;20014;-80
2022/06/19 01:25:19;;;;;;;5.88;5.28;;;;;;;;;;6097746;23;20002;-80
2022/06/19 01:30:39;;;;;;;5.05;4.57;;;;;;;;;;6097863;23;20065;-80
2022/06/19 01:33:06;;;;;;;4.30;3.95;;;;;;;;;;6098040;23;20429;-79
2022/06/19 01:35:34;;;;;;;4.38;3.97;;;;;;;;;;6097526;23;20077;-80
2022/06/19 01:38:02;;;;;;;5.22;4.72;;;;;;;;;;6097638;23;20006;-79
2022/06/19 01:40:31;;;;;;;4.60;4.20;;;;;;;;;;6097406;23;20089;-79
2022/06/19 01:42:57;;;;;;;5.20;4.38;;;;;;;;;;6072585;23;20002;-81
2022/06/19 01:45:24;;;;;;;7.07;6.47;;;;;;;;;;6097119;23;20338;-79
2022/06/19 01:47:50;;;;;;;9.95;8.88;;;;;;;;;;6097579;23;20006;-80
2022/06/19 01:50:19;;;;;;;6.38;4.90;;;;;;;;;;6097327;23;20008;-80
2022/06/19 01:52:45;;;;;;;28.90;19.88;;;;;;;;;;6097610;23;20009;-79
2022/06/19 01:55:13;;;;;;;5.38;4.78;;;;;;;;;;6072039;23;20204;-80
2022/06/19 01:57:41;;;;;;;30.52;14.60;;;;;;;;;;6097539;23;19999;-80
2022/06/19 02:00:09;;;;;;;7.13;5.80;;;;;;;;;;6097682;23;19998;-79
2022/06/19 02:02:35;;;;;;;5.03;4.40;;;;;;;;;;6097588;23;20058;-80
2022/06/19 02:05:02;;;;;;;5.80;4.70;;;;;;;;;;6097662;23;20010;-79
2022/06/19 02:07:29;;;;;;;5.00;4.30;;;;;;;;;;6097065;23;20108;-80
2022/06/19 02:09:55;;;;;;;4.95;4.43;;;;;;;;;;6097351;23;20007;-79
2022/06/19 02:12:22;;;;;;;6.95;5.95;;;;;;;;;;6097066;23;20073;-79
2022/06/19 02:14:49;;;;;;;9.93;7.40;;;;;;;;;;6097758;23;20014;-79
2022/06/19 02:17:17;;;;;;;9.15;7.22;;;;;;;;;;6096895;23;20028;-79
2022/06/19 02:19:43;;;;;;;13.10;9.13;;;;;;;;;;6097254;23;20002;-79
2022/06/19 02:22:28;;;;;;;12.75;9.55;;;;;;;;;;6097056;23;20009;-79
2022/06/19 02:24:57;;;;;;;13.30;8.73;;;;;;;;;;6097030;23;20304;-79
2022/06/19 02:27:24;;;;;;;13.73;9.10;;;;;;;;;;6097237;23;20082;-80
2022/06/19 02:29:50;;;;;;;14.85;9.43;;;;;;;;;;6097202;23;19999;-79
2022/06/19 02:32:22;;;;;;;8.60;6.82;;;;;;;;;;6096720;23;20009;-80
2022/06/19 02:34:50;;;;;;;7.70;6.90;;;;;;;;;;6096897;23;20057;-81
2022/06/19 02:37:23;;;;;;;8.60;6.55;;;;;;;;;;6097092;23;20002;-80
2022/06/19 02:39:55;;;;;;;7.80;7.00;;;;;;;;;;6096900;23;19995;-79
2022/06/19 02:42:22;;;;;;;7.88;6.07;;;;;;;;;;6097140;23;20006;-80
2022/06/19 02:44:52;;;;;;;8.93;6.00;;;;;;;;;;6096791;23;20498;-79
2022/06/19 02:47:19;;;;;;;6.88;6.18;;;;;;;;;;6096999;23;20007;-79
2022/06/19 02:49:45;;;;;;;6.75;5.82;;;;;;;;;;6096988;23;20010;-79
2022/06/19 02:52:12;;;;;;;5.95;5.35;;;;;;;;;;6096841;23;20033;-79
2022/06/19 02:54:39;;;;;;;5.30;4.80;;;;;;;;;;6096625;23;20002;-79
2022/06/19 02:57:06;;;;;;;5.95;5.38;;;;;;;;;;6096691;23;20070;-80
2022/06/19 02:59:32;;;;;;;6.68;4.97;;;;;;;;;;6096785;23;20006;-79
2022/06/19 03:01:58;;;;;;;5.43;4.93;;;;;;;;;;6096479;23;20003;-79
2022/06/19 03:04:26;;;;;;;5.50;5.00;;;;;;;;;;6096790;23;20057;-79
2022/06/19 03:06:55;;;;;;;5.82;5.15;;;;;;;;;;6096400;23;20010;-78
2022/06/19 03:09:21;;;;;;;6.05;5.30;;;;;;;;;;6096840;23;20006;-79
2022/06/19 03:11:47;;;;;;;6.30;5.80;;;;;;;;;;6096342;23;20447;-78
2022/06/19 03:14:14;;;;;;;5.78;5.28;;;;;;;;;;6096957;23;20017;-79
2022/06/19 03:16:40;;;;;;;7.18;5.38;;;;;;;;;;6096356;23;20025;-79
2022/06/19 03:19:07;;;;;;;5.35;4.82;;;;;;;;;;6096452;23;20427;-79
2022/06/19 03:21:33;;;;;;;5.15;4.75;;;;;;;;;;6096445;23;20006;-80
2022/06/19 03:23:59;;;;;;;5.57;4.95;;;;;;;;;;6096229;23;20002;-79
2022/06/19 03:26:26;;;;;;;5.55;5.05;;;;;;;;;;6096735;23;20010;-79
2022/06/19 03:28:53;;;;;;;5.85;5.32;;;;;;;;;;6096213;23;20438;-79
2022/06/19 03:31:21;;;;;;;5.80;5.30;;;;;;;;;;6096504;23;20009;-79
2022/06/19 03:33:47;;;;;;;6.22;5.28;;;;;;;;;;6096178;23;20423;-81
2022/06/19 03:36:13;;;;;;;8.32;5.50;;;;;;;;;;6096392;23;19998;-79
2022/06/19 03:38:39;;;;;;;6.47;4.90;;;;;;;;;;6096570;23;20002;-78
2022/06/19 03:41:05;;;;;;;20.17;17.67;;;;;;;;;;6096612;23;20093;-78
2022/06/19 03:43:33;;;;;;;5.70;5.15;;;;;;;;;;6096026;23;20002;-79
2022/06/19 03:46:03;;;;;;;11.65;10.45;;;;;;;;;;6096199;23;20438;-78
2022/06/19 03:48:29;;;;;;;32.55;24.67;;;;;;;;;;6096363;23;20029;-79
2022/06/19 03:50:55;;;;;;;13.73;12.30;;;;;;;;;;6096107;23;20002;-80
2022/06/19 03:53:21;;;;;;;9.07;7.10;;;;;;;;;;6096275;23;20006;-79
2022/06/19 03:55:47;;;;;;;8.95;8.05;;;;;;;;;;6096141;23;20038;-79
2022/06/19 03:58:13;;;;;;;6.15;5.63;;;;;;;;;;6095925;23;20003;-78
2022/06/19 04:00:40;;;;;;;6.50;5.40;;;;;;;;;;6096347;23;20033;-79
2022/06/19 04:03:06;;;;;;;6.15;5.65;;;;;;;;;;6096028;23;20308;-80
2022/06/19 04:05:32;;;;;;;7.32;4.78;;;;;;;;;;6096147;23;20010;-79
2022/06/19 04:07:58;;;;;;;6.93;6.25;;;;;;;;;;6095940;23;20498;-79
2022/06/19 04:10:25;;;;;;;7.38;6.68;;;;;;;;;;6096405;23;20037;-79
2022/06/19 04:12:51;;;;;;;5.75;5.25;;;;;;;;;;6096220;23;20074;-80
2022/06/19 04:15:17;;;;;;;6.45;5.60;;;;;;;;;;6095994;23;20430;-79
2022/06/19 04:17:43;;;;;;;5.32;4.88;;;;;;;;;;6095988;23;20019;-79
2022/06/19 04:20:10;;;;;;;5.75;5.25;;;;;;;;;;6095927;23;20006;-79
2022/06/19 04:22:37;;;;;;;5.78;5.15;;;;;;;;;;6096152;23;20087;-79
2022/06/19 04:25:04;;;;;;;5.97;5.38;;;;;;;;;;6095973;23;19999;-79
2022/06/19 04:27:31;;;;;;;7.05;5.35;;;;;;;;;;6096281;23;20391;-79
2022/06/19 04:29:57;;;;;;;6.93;5.93;;;;;;;;;;6096092;23;20002;-80
2022/06/19 04:32:23;;;;;;;15.23;9.10;;;;;;;;;;6096292;23;20002;-79
2022/06/19 04:34:49;;;;;;;15.90;9.77;;;;;;;;;;6070697;23;20034;-79
2022/06/19 04:37:15;;;;;;;17.25;10.55;;;;;;;;;;6095929;23;20002;-79
2022/06/19 04:39:41;;;;;;;24.23;16.63;;;;;;;;;;6096267;23;20014;-79
2022/06/19 04:42:08;;;;;;;25.00;16.85;;;;;;;;;;6095888;23;20070;-80
2022/06/19 04:44:34;;;;;;;27.00;16.85;;;;;;;;;;6096200;23;20054;-79
2022/06/19 04:47:00;;;;;;;31.67;18.10;;;;;;;;;;6096097;23;20077;-79
2022/06/19 04:49:29;;;;;;;26.83;15.90;;;;;;;;;;6096014;23;20014;-80
2022/06/19 04:51:55;;;;;;;25.02;14.82;;;;;;;;;;6096201;23;20013;-79
2022/06/19 04:54:21;;;;;;;26.02;17.52;;;;;;;;;;6095750;23;20007;-79
2022/06/19 04:56:47;;;;;;;28.90;18.23;;;;;;;;;;6097556;23;19998;-80
2022/06/19 04:59:14;;;;;;;24.77;15.50;;;;;;;;;;6097880;23;19998;-79
2022/06/19 05:01:40;;;;;;;19.67;14.43;;;;;;;;;;6098153;23;20030;-79
2022/06/19 05:04:08;;;;;;;18.92;13.23;;;;;;;;;;6098020;23;20010;-79
2022/06/19 05:06:34;;;;;;;17.58;13.55;;;;;;;;;;6072429;23;20013;-80
2022/06/19 05:09:00;;;;;;;17.85;13.63;;;;;;;;;;6097958;23;20030;-79
2022/06/19 05:11:28;;;;;;;16.33;12.07;;;;;;;;;;6097591;23;20009;-79
2022/06/19 05:13:55;;;;;;;15.65;12.38;;;;;;;;;;6098137;23;20002;-79
2022/06/19 05:16:23;;;;;;;18.88;12.68;;;;;;;;;;6097308;23;20022;-80
2022/06/19 05:18:50;;;;;;;14.05;10.48;;;;;;;;;;6097846;23;20073;-80
2022/06/19 05:21:16;;;;;;;16.33;10.38;;;;;;;;;;6097510;23;20002;-80
2022/06/19 05:23:44;;;;;;;14.45;10.60;;;;;;;;;;6097800;23;20041;-79
2022/06/19 05:26:12;;;;;;;12.73;10.00;;;;;;;;;;6097345;23;20003;-79
2022/06/19 05:28:38;;;;;;;12.55;9.70;;;;;;;;;;6097695;23;20010;-79
2022/06/19 05:31:04;;;;;;;12.95;10.45;;;;;;;;;;6097498;23;20006;-80
2022/06/19 05:33:31;;;;;;;13.18;9.35;;;;;;;;;;6097496;23;20431;-79
2022/06/19 05:35:58;;;;;;;12.52;9.38;;;;;;;;;;6097494;23;20006;-79
2022/06/19 05:38:24;;;;;;;10.90;8.70;;;;;;;;;;6097339;23;20030;-80
2022/06/19 05:40:54;;;;;;;13.23;9.10;;;;;;;;;;6097526;23;20461;-79
2022/06/19 05:43:21;;;;;;;9.10;7.63;;;;;;;;;;6097241;23;20053;-79
2022/06/19 05:45:54;;;;;;;11.10;7.68;;;;;;;;;;6097385;23;20010;-80
2022/06/19 05:48:20;;;;;;;10.60;7.75;;;;;;;;;;6097139;23;20073;-79
2022/06/19 05:50:56;;;;;;;11.63;8.18;;;;;;;;;;6097654;23;20007;-81
2022/06/19 05:53:22;;;;;;;11.48;8.98;;;;;;;;;;6097446;23;20013;-79
2022/06/19 05:55:48;;;;;;;9.40;7.40;;;;;;;;;;6097380;23;20007;-79
2022/06/19 05:58:14;;;;;;;8.77;6.10;;;;;;;;;;6097054;23;19998;-79
2022/06/19 06:00:40;;;;;;;7.68;4.72;;;;;;;;;;6097500;23;20327;-79
2022/06/19 06:03:06;;;;;;;7.15;5.88;;;;;;;;;;6097045;23;19998;-80
2022/06/19 06:05:33;;;;;;;5.88;4.95;;;;;;;;;;6097264;23;20011;-80
2022/06/19 06:07:59;;;;;;;7.38;6.05;;;;;;;;;;6096589;23;20002;-79
2022/06/19 06:10:25;;;;;;;9.02;5.25;;;;;;;;;;6097095;23;20002;-79
2022/06/19 06:12:51;;;;;;;6.55;5.95;;;;;;;;;;6097299;23;20338;-79
2022/06/19 06:15:17;;;;;;;6.28;5.28;;;;;;;;;;6097317;23;20065;-79
2022/06/19 06:17:43;;;;;;;5.07;4.55;;;;;;;;;;6096932;23;20022;-79
2022/06/19 06:20:09;;;;;;;3.83;3.10;;;;;;;;;;6096985;23;20026;-79
2022/06/19 06:22:35;;;;;;;4.55;4.15;;;;;;;;;;6097247;23;20002;-79
2022/06/19 06:25:01;;;;;;;6.30;4.22;;;;;;;;;;6097161;23;20009;-80
2022/06/19 06:27:27;;;;;;;4.80;4.05;;;;;;;;;;6097033;23;20002;-79
2022/06/19 06:29:53;;;;;;;4.90;4.18;;;;;;;;;;6097053;23;20002;-79
2022/06/19 06:32:20;;;;;;;4.68;4.28;;;;;;;;;;6096656;23;19998;-80
2022/06/19 06:34:46;;;;;;;4.40;4.00;;;;;;;;;;6097009;23;20035;-80
2022/06/19 06:37:12;;;;;;;4.57;4.10;;;;;;;;;;6096891;23;20417;-80
2022/06/19 06:39:38;;;;;;;6.45;4.38;;;;;;;;;;6097287;23;20009;-80
2022/06/19 06:42:04;;;;;;;4.82;4.03;;;;;;;;;;6096973;23;20415;-80
2022/06/19 06:44:30;;;;;;;4.00;3.60;;;;;;;;;;6096582;23;20012;-79
2022/06/19 06:46:56;;;;;;;4.30;3.88;;;;;;;;;;6096911;23;20002;-81
2022/06/19 06:49:22;;;;;;;5.05;4.25;;;;;;;;;;6071192;23;20054;-79
2022/06/19 06:51:48;;;;;;;5.18;3.83;;;;;;;;;;6097005;23;20011;-81
2022/06/19 06:54:15;;;;;;;4.97;4.15;;;;;;;;;;6096847;23;20064;-79
2022/06/19 06:56:41;;;;;;;4.30;3.90;;;;;;;;;;6071586;23;20009;-80
2022/06/19 06:59:07;;;;;;;5.22;4.15;;;;;;;;;;6096913;23;20009;-82
2022/06/19 07:01:33;;;;;;;4.70;4.13;;;;;;;;;;6096579;23;19998;-79
2022/06/19 07:03:59;;;;;;;5.78;4.45;;;;;;;;;;6096912;23;20442;-80
2022/06/19 07:06:28;;;;;;;4.88;4.22;;;;;;;;;;6096380;23;20006;-80
2022/06/19 07:08:54;;;;;;;5.85;4.40;;;;;;;;;;6096528;23;20053;-80
2022/06/19 07:11:22;;;;;;;5.95;4.55;;;;;;;;;;6096309;23;20086;-80
2022/06/19 07:13:49;;;;;;;6.40;4.78;;;;;;;;;;6096658;23;19999;-79
2022/06/19 07:16:15;;;;;;;4.35;3.90;;;;;;;;;;6070948;23;20469;-80
2022/06/19 07:18:41;;;;;;;5.32;4.00;;;;;;;;;;6096448;23;20074;-80
2022/06/19 07:21:09;;;;;;;5.28;3.97;;;;;;;;;;6096650;23;20014;-80
2022/06/19 07:23:35;;;;;;;5.07;4.03;;;;;;;;;;6096245;23;20442;-80
2022/06/19 07:26:01;;;;;;;4.38;3.95;;;;;;;;;;6096595;23;20006;-80
2022/06/19 07:28:28;;;;;;;4.82;4.03;;;;;;;;;;6096338;23;20334;-81
2022/06/19 07:30:54;;;;;;;5.32;4.10;;;;;;;;;;6096642;23;20058;-80
2022/06/19 07:33:20;;;;;;;6.13;4.85;;;;;;;;;;6096424;23;19998;-79
2022/06/19 07:35:46;;;;;;;4.47;4.03;;;;;;;;;;6096191;23;20010;-80
2022/06/19 07:38:12;;;;;;;4.22;3.92;;;;;;;;;;6096471;23;20006;-80
2022/06/19 07:40:39;;;;;;;4.25;3.85;;;;;;;;;;6096185;23;20006;-80
2022/06/19 07:43:05;;;;;;;5.13;4.10;;;;;;;;;;6096299;23;20009;-80
2022/06/19 07:45:31;;;;;;;4.15;3.60;;;;;;;;;;6096091;23;20002;-80
2022/06/19 07:50:43;;;;;;;3.88;3.58;;;;;;;;;;6096284;23;20045;-80
2022/06/19 07:53:09;;;;;;;3.95;3.47;;;;;;;;;;6096174;23;20509;-80
2022/06/19 07:55:36;;;;;;;5.63;3.70;;;;;;;;;;6095962;23;20077;-79
2022/06/19 07:58:02;;;;;;;4.78;3.65;;;;;;;;;;6096237;23;20006;-77
2022/06/19 08:00:30;;;;;;;3.85;3.15;;;;;;;;;;6096012;23;20006;-80
2022/06/19 08:02:56;;;;;;;3.97;3.40;;;;;;;;;;6070868;23;20343;-80
2022/06/19 08:05:24;;;;;;;4.55;3.42;;;;;;;;;;6096054;23;20013;-80
2022/06/19 08:07:52;;;;;;;3.63;3.28;;;;;;;;;;6096326;23;20002;-80
2022/06/19 08:10:23;;;;;;;4.28;3.20;;;;;;;;;;6095870;23;20435;-79
2022/06/19 08:12:51;;;;;;;3.30;3.10;;;;;;;;;;6096446;23;20013;-79
2022/06/19 08:15:18;;;;;;;3.03;2.70;;;;;;;;;;6096331;23;20011;-80
2022/06/19 08:17:44;;;;;;;2.90;2.58;;;;;;;;;;6096063;23;20438;-79
2022/06/19 08:20:11;;;;;;;2.75;2.55;;;;;;;;;;6096038;23;20003;-79
2022/06/19 08:22:38;;;;;;;3.20;2.80;;;;;;;;;;6096234;23;20017;-80
2022/06/19 08:25:04;;;;;;;3.13;2.83;;;;;;;;;;6096246;23;20025;-79
2022/06/19 08:27:30;;;;;;;3.33;3.03;;;;;;;;;;6095730;23;20334;-79
2022/06/19 08:29:56;;;;;;;3.03;2.83;;;;;;;;;;6095924;23;20442;-80
2022/06/19 08:32:22;;;;;;;4.13;3.70;;;;;;;;;;6095679;23;20009;-80
2022/06/19 08:34:49;;;;;;;3.05;2.78;;;;;;;;;;6096059;23;20374;-80
2022/06/19 08:37:15;;;;;;;4.43;4.03;;;;;;;;;;6096019;23;20065;-80
2022/06/19 08:39:41;;;;;;;5.55;5.05;;;;;;;;;;6095757;23;20001;-79
2022/06/19 08:42:11;;;;;;;6.75;6.15;;;;;;;;;;6096111;23;20006;-80
2022/06/19 08:45:09;;;;;;;3.65;3.35;;;;;;;;;;6095927;23;20026;-80
2022/06/19 08:47:38;;;;;;;3.85;3.55;;;;;;;;;;6017795;23;20006;-80
2022/06/19 08:50:13;;;;;;;5.68;4.03;;;;;;;;;;6095667;23;20447;-79
2022/06/19 08:53:02;;;;;;;5.32;3.33;;;;;;;;;;6095916;23;20007;-79
2022/06/19 08:55:46;;;;;;;5.55;4.93;;;;;;;;;;6077465;23;20014;-80
2022/06/19 08:58:19;;;;;;;3.23;2.93;;;;;;;;;;6096061;23;20009;-83
2022/06/19 09:00:57;;;;;;;6.05;2.38;;;;;;;;;;6096056;23;20390;-80
2022/06/19 09:05:36;;;;;;;2.50;2.30;;;;;;;;;;6096137;23;20493;-80
2022/06/19 09:06:32;;;;;;;3.58;2.53;;;;;;;;;;6095979;23;20018;-77
2022/06/19 09:09:17;;;;;;;2.67;2.47;;;;;;;;;;6096102;23;20331;-80
2022/06/19 09:11:43;;;;;;;3.60;3.28;;;;;;;;;;6096005;23;20010;-79
2022/06/19 09:14:09;;;;;;;3.13;2.47;;;;;;;;;;6095968;23;20038;-81
2022/06/19 09:16:54;;;;;;;2.60;2.25;;;;;;;;;;6095636;23;20354;-82
2022/06/19 09:19:39;;;;;;;2.50;2.30;;;;;;;;;;6095981;23;20009;-81
2022/06/19 09:22:05;;;;;;;3.88;2.22;;;;;;;;;;6095797;23;20069;-81
2022/06/19 09:24:50;;;;;;;3.15;2.03;;;;;;;;;;6095953;23;19999;-81
2022/06/19 09:27:16;;;;;;;3.05;1.98;;;;;;;;;;6095923;23;20021;-81
2022/06/19 09:30:01;;;;;;;2.30;1.88;;;;;;;;;;6095627;23;20061;-81
2022/06/19 09:32:31;;;;;;;3.22;2.00;;;;;;;;;;6095583;23;20002;-81
2022/06/19 09:35:00;;;;;;;2.60;1.90;;;;;;;;;;6095923;23;20006;-81
2022/06/19 09:37:45;;;;;;;3.60;2.35;;;;;;;;;;6095569;23;19999;-81
2022/06/19 09:40:15;;;;;;;1.92;1.83;;;;;;;;;;6095573;23;20002;-81
2022/06/19 09:42:48;;;;;;;2.10;1.80;;;;;;;;;;6097016;23;20423;-82
2022/06/19 09:45:22;;;;;;;2.17;1.97;;;;;;;;;;6097439;23;20312;-80
2022/06/19 09:47:48;;;;;;;2.22;1.50;;;;;;;;;;6097150;23;20013;-80
2022/06/19 09:50:31;;;;;;;2.38;2.17;;;;;;;;;;6097445;23;20002;-82
2022/06/19 09:53:17;;;;;;;2.13;1.90;;;;;;;;;;6097291;23;20443;-81
2022/06/19 09:55:52;;;;;;;2.78;2.17;;;;;;;;;;6073186;23;20010;-81
2022/06/19 09:58:20;;;;;;;2.55;2.28;;;;;;;;;;6097290;23;20003;-83
2022/06/19 10:00:49;;;;;;;2.95;2.75;;;;;;;;;;6071804;23;20010;-81
2022/06/19 10:03:26;;;;;;;2.75;2.55;;;;;;;;;;6097094;23;20002;-81
2022/06/19 10:05:52;;;;;;;2.92;2.72;;;;;;;;;;6097407;23;20338;-82
2022/06/19 10:08:24;;;;;;;2.47;2.28;;;;;;;;;;6097069;23;20002;-80
2022/06/19 10:10:52;;;;;;;2.40;2.20;;;;;;;;;;6097335;23;20419;-81
2022/06/19 10:13:25;;;;;;;2.13;1.92;;;;;;;;;;6096997;23;20006;-78
2022/06/19 10:15:52;;;;;;;3.05;2.70;;;;;;;;;;6096795;23;20006;-79
2022/06/19 10:18:35;;;;;;;2.05;1.80;;;;;;;;;;6097341;23;20069;-81
2022/06/19 10:24:15;;;;;;;2.35;2.15;;;;;;;;;;6097258;23;20331;-82
2022/06/19 10:27:00;;;;;;;2.45;2.25;;;;;;;;;;6097273;23;20070;-81
2022/06/19 10:29:26;;;;;;;2.90;2.30;;;;;;;;;;6097085;23;20009;-80
2022/06/19 10:32:00;;;;;;;3.63;2.42;;;;;;;;;;6096647;23;20438;-80
2022/06/19 10:34:45;;;;;;;8.85;8.05;;;;;;;;;;6096935;23;20430;-80
2022/06/19 10:37:17;;;;;;;2.72;2.47;;;;;;;;;;6097562;23;20003;-79
2022/06/19 10:39:54;;;;;;;3.80;2.20;;;;;;;;;;6096516;23;20006;-81
2022/06/19 10:42:38;;;;;;;2.20;2.00;;;;;;;;;;6096813;23;20003;-80
2022/06/19 10:45:04;;;;;;;;;;;;;;;;;;6097039;23;20334;-81
2022/06/19 10:47:40;;;;;;;2.85;1.83;;;;;;;;;;6071379;23;19908;-81
2022/06/19 10:50:26;;;;;;;2.30;1.70;;;;;;;;;;6096560;23;20073;-80
2022/06/19 10:53:07;;;;;;;3.38;3.08;;;;;;;;;;6072534;23;20065;-81
2022/06/19 10:55:37;;;;;;;2.45;2.08;;;;;;;;;;6096461;23;20030;-81
2022/06/19 10:58:03;;;;;;;2.25;2.05;;;;;;;;;;6096861;23;20038;-80
2022/06/19 11:00:29;;;;;;;2.92;2.10;;;;;;;;;;6096742;23;20005;-82
2022/06/19 11:06:17;;;;;;;2.30;2.13;;;;;;;;;;6096584;23;20436;-80
2022/06/19 11:08:45;;;;;;;2.85;1.83;;;;;;;;;;6096613;23;20014;-80
2022/06/19 11:11:15;;;;;;;2.25;1.90;;;;;;;;;;6096833;23;20326;-80
2022/06/19 11:13:59;;;;;;;2.15;1.92;;;;;;;;;;6096532;23;20054;-81
2022/06/19 11:16:28;;;;;;;1.75;1.42;;;;;;;;;;6096284;23;20482;-81
2022/06/19 11:18:54;;;;;;;2.65;1.75;;;;;;;;;;6096752;23;20002;-82
2022/06/19 11:21:23;;;;;;;2.50;1.98;;;;;;;;;;6096546;23;19998;-83
2022/06/19 11:23:56;;;;;;;2.08;1.90;;;;;;;;;;6096475;23;20023;-82
2022/06/19 11:26:23;;;;;;;2.53;1.80;;;;;;;;;;6096659;23;20009;-81
2022/06/19 11:28:55;;;;;;;3.10;1.77;;;;;;;;;;6096701;23;20002;-80
2022/06/19 11:31:32;;;;;;;2.05;1.90;;;;;;;;;;6096304;23;19998;-82
2022/06/19 11:37:24;;;;;;;2.08;1.67;;;;;;;;;;6096692;23;20020;-82
2022/06/19 11:39:50;;;;;;;2.20;1.38;;;;;;;;;;6096513;23;20085;-82
2022/06/19 11:42:34;;;;;;;2.13;1.40;;;;;;;;;;6096445;23;20006;-81
2022/06/19 11:45:01;;;;;;;1.70;1.60;;;;;;;;;;6096635;23;20078;-80
2022/06/19 11:47:29;;;;;;;2.22;1.60;;;;;;;;;;6070613;23;20391;-81
2022/06/19 11:50:08;;;;;;;1.67;1.52;;;;;;;;;;6096480;23;20006;-80
2022/06/19 11:52:34;;;;;;;2.03;1.65;;;;;;;;;;6096470;23;20124;-80
2022/06/19 11:55:01;;;;;;;2.10;1.80;;;;;;;;;;6096240;23;20084;-81
2022/06/19 11:57:29;;;;;;;3.60;3.30;;;;;;;;;;6096366;23;19998;-82
2022/06/19 11:59:57;;;;;;;3.10;2.80;;;;;;;;;;6071160;23;20445;-81
2022/06/19 12:02:41;;;;;;;2.22;1.70;;;;;;;;;;6098008;23;20006;-79
2022/06/19 12:05:20;;;;;;;2.47;1.75;;;;;;;;;;6095889;23;20025;-81
2022/06/19 12:07:46;;;;;;;2.55;1.83;;;;;;;;;;6095898;23;20002;-81
2022/06/19 12:10:15;;;;;;;2.53;2.33;;;;;;;;;;6096363;23;20046;-80
2022/06/19 12:12:52;;;;;;;3.63;2.38;;;;;;;;;;6095926;23;20058;-81
2022/06/19 12:15:27;;;;;;;2.17;1.92;;;;;;;;;;6070338;23;20351;-82
2022/06/19 12:18:01;;;;;;;3.65;2.10;;;;;;;;;;6095919;23;20033;-80
2022/06/19 12:20:29;;;;;;;2.45;2.20;;;;;;;;;;6095911;23;20011;-81
2022/06/19 12:23:16;;;;;;;2.20;2.10;;;;;;;;;;6096257;23;20006;-82
2022/06/19 12:25:51;;;;;;;2.25;1.90;;;;;;;;;;6096253;23;20010;-83
2022/06/19 12:28:20;;;;;;;2.30;2.10;;;;;;;;;;6096082;23;20537;-80
2022/06/19 12:31:09;;;;;;;2.63;1.95;;;;;;;;;;6096206;23;20489;-83
2022/06/19 12:33:35;;;;;;;2.28;1.90;;;;;;;;;;6077969;23;20339;-81
2022/06/19 12:36:02;;;;;;;6.85;6.25;;;;;;;;;;6096266;23;20002;-81
2022/06/19 12:38:32;;;;;;;3.67;3.35;;;;;;;;;;6096031;23;20011;-82
2022/06/19 12:41:08;;;;;;;3.20;2.90;;;;;;;;;;6095918;23;20002;-82
2022/06/19 12:43:37;;;;;;;3.38;3.08;;;;;;;;;;6095735;23;19998;-78
2022/06/19 12:46:04;;;;;;;2.22;1.77;;;;;;;;;;6096020;23;20010;-78
2022/06/19 12:48:36;;;;;;;2.63;1.80;;;;;;;;;;6095667;23;20006;-81
2022/06/19 12:51:05;;;;;;;1.85;1.60;;;;;;;;;;6096011;23;20086;-82
2022/06/19 12:53:41;;;;;;;2.35;1.92;;;;;;;;;;6095877;23;20133;-82
2022/06/19 12:56:26;;;;;;;2.15;1.70;;;;;;;;;;6095801;23;20014;-80
2022/06/19 12:59:10;;;;;;;2.10;1.90;;;;;;;;;;6095855;23;20006;-81
2022/06/19 13:01:39;;;;;;;2.10;1.40;;;;;;;;;;6095998;23;20014;-81
2022/06/19 13:04:24;;;;;;;1.60;1.48;;;;;;;;;;6095998;23;20000;-80
2022/06/19 13:07:09;;;;;;;1.75;1.60;;;;;;;;;;6096025;23;20010;-81
2022/06/19 13:09:52;;;;;;;1.70;1.60;;;;;;;;;;6095765;23;20077;-81
2022/06/19 13:12:27;;;;;;;1.50;1.33;;;;;;;;;;6095842;23;20423;-82
2022/06/19 13:14:56;;;;;;;1.40;1.30;;;;;;;;;;6095790;23;20065;-81
2022/06/19 13:17:41;;;;;;;2.25;1.50;;;;;;;;;;6097012;23;20046;-81
2022/06/19 13:20:27;;;;;;;7.18;5.40;;;;;;;;;;6097919;23;20006;-82
2022/06/19 13:22:59;;;;;;;3.47;3.17;;;;;;;;;;6097883;23;20010;-81
2022/06/19 13:25:29;;;;;;;2.05;1.90;;;;;;;;;;6097550;23;20021;-81
2022/06/19 13:28:13;;;;;;;2.08;1.85;;;;;;;;;;6097707;23;20426;-81
2022/06/19 13:30:39;;;;;;;;;;;;;;;;;;6098146;23;20029;-81
2022/06/19 13:33:11;;;;;;;1.50;1.40;;;;;;;;;;6097499;23;19901;-81
2022/06/19 13:35:40;;;;;;;1.35;1.25;;;;;;;;;;6097785;23;20411;-80
2022/06/19 13:38:15;;;;;;;2.25;1.50;;;;;;;;;;6097350;23;20007;-81
2022/06/19 13:40:53;;;;;;;1.40;1.30;;;;;;;;;;6097516;23;19999;-81
2022/06/19 13:43:31;;;;;;;1.58;1.30;;;;;;;;;;6097760;23;20002;-82
2022/06/19 13:46:27;;;;;;;1.73;1.63;;;;;;;;;;6097659;23;20130;-81
2022/06/19 13:48:56;;;;;;;1.38;1.27;;;;;;;;;;6042168;23;20085;-82
2022/06/19 13:51:22;;;;;;;2.15;1.83;;;;;;;;;;6097298;23;19998;-81
2022/06/19 13:53:48;;;;;;;3.83;1.65;;;;;;;;;;6097565;23;20308;-81
2022/06/19 13:56:22;;;;;;;2.17;1.98;;;;;;;;;;6097266;23;20051;-81
2022/06/19 13:59:07;;;;;;;1.95;1.20;;;;;;;;;;6097608;23;20449;-81
2022/06/19 14:01:35;;;;;;;2.78;1.42;;;;;;;;;;6097883;23;20026;-80
2022/06/19 14:07:08;;;;;;;1.60;1.40;;;;;;;;;;6097266;23;20045;-82
2022/06/19 14:09:40;;;;;;;7.05;6.30;;;;;;;;;;6096948;23;19995;-81
2022/06/19 14:12:07;;;;;;;2.45;1.77;;;;;;;;;;6097467;23;20077;-79
2022/06/19 14:14:46;;;;;;;2.33;1.40;;;;;;;;;;6071320;23;20342;-80
2022/06/19 14:17:15;;;;;;;2.70;2.50;;;;;;;;;;6096619;23;20094;-81
2022/06/19 14:19:49;;;;;;;2.47;1.73;;;;;;;;;;6097284;23;20010;-82
2022/06/19 14:22:15;;;;;;;1.85;1.63;;;;;;;;;;6096893;23;20013;-81
2022/06/19 14:24:59;;;;;;;1.95;1.75;;;;;;;;;;6097185;23;20491;-80
2022/06/19 14:27:37;;;;;;;1.35;1.25;;;;;;;;;;6097160;23;19999;-79
2022/06/19 14:30:20;;;;;;;2.83;1.35;;;;;;;;;;6096856;23;20021;-81
2022/06/19 14:32:48;;;;;;;1.35;1.25;;;;;;;;;;6097235;23;19998;-81
2022/06/19 14:35:19;;;;;;;1.52;1.42;;;;;;;;;;6096851;23;20426;-78
2022/06/19 14:37:50;;;;;;;4.50;3.22;;;;;;;;;;6096985;23;20006;-80
2022/06/19 14:40:19;;;;;;;2.67;2.42;;;;;;;;;;6096719;23;19998;-80
2022/06/19 14:43:15;;;;;;;1.90;1.17;;;;;;;;;;6096978;23;20032;-81
2022/06/19 14:45:46;;;;;;;1.63;1.40;;;;;;;;;;6096887;23;20006;-79
2022/06/19 14:48:15;;;;;;;2.15;1.40;;;;;;;;;;6096951;23;20011;-81
2022/06/19 14:50:45;;;;;;;3.83;3.42;;;;;;;;;;6096914;23;20456;-82
2022/06/19 14:53:17;;;;;;;4.18;3.50;;;;;;;;;;6096976;23;20070;-81
2022/06/19 14:56:03;;;;;;;2.10;1.73;;;;;;;;;;6096555;23;20017;-80
2022/06/19 14:58:31;;;;;;;2.10;1.40;;;;;;;;;;6096565;23;19998;-81
2022/06/19 15:01:00;;;;;;;2.05;1.85;;;;;;;;;;6096829;23;20005;-81
2022/06/19 15:03:30;;;;;;;1.95;1.30;;;;;;;;;;6096484;23;20456;-81
2022/06/19 15:05:57;;;;;;;2.67;1.48;;;;;;;;;;6096843;23;20320;-81
2022/06/19 15:08:30;;;;;;;1.50;1.40;;;;;;;;;;6096589;23;20006;-81
2022/06/19 15:11:00;;;;;;;3.28;2.10;;;;;;;;;;6096711;23;20013;-81
2022/06/19 15:13:31;;;;;;;3.80;1.85;;;;;;;;;;6096362;23;20084;-81
2022/06/19 15:16:00;;;;;;;4.68;3.35;;;;;;;;;;6096460;23;20098;-80